Time;durP1;ratioP1;P1;durP2;ratioP2;P2;SDS_P1;SDS_P2;PMS_P1;PMS_P2;Temp;Humidity;BMP_temperature;BMP_pressure;BME280_temperature;BME280_humidity;BME280_pressure;Samples;Min_cycle;Max_cycle;Signal;HPM_P1;HPM_P2
2023/02/13 00:00:00;;;;;;;66.53;43.42;;;128.70;2252.80;;;;;;5030248;28;20033;-64
2023/02/13 00:02:26;;;;;;;147.93;91.03;;;128.80;2252.80;;;;;;5030765;28;20060;-63
2023/02/13 00:04:51;;;;;;;340.45;182.32;;;153.60;2252.80;;;;;;5030245;28;20041;-64
2023/02/13 00:07:17;;;;;;;120.93;70.78;;;153.80;2252.80;;;;;;5030390;28;20029;-62
2023/02/13 00:09:43;;;;;;;131.93;79.35;;;153.90;2252.80;;;;;;5030156;28;20040;-64
2023/02/13 00:12:09;;;;;;;85.70;50.83;;;153.80;2252.80;;;;;;5030309;28;20030;-64
2023/02/13 00:14:37;;;;;;;79.63;52.17;;;153.80;2252.80;;;;;;5030442;28;20076;-64
2023/02/13 00:17:03;;;;;;;71.13;46.97;;;154.30;2252.80;;;;;;5030129;28;20026;-64
2023/02/13 00:19:29;;;;;;;66.55;42.50;;;153.90;2252.80;;;;;;5030403;28;20033;-64
2023/02/13 00:21:55;;;;;;;63.50;40.47;;;153.90;2252.80;;;;;;5034674;28;20029;-66
2023/02/13 00:24:21;;;;;;;80.95;49.50;;;153.60;2252.80;;;;;;5038964;28;20383;-63
2023/02/13 00:26:46;;;;;;;109.28;71.90;;;153.60;2252.80;;;;;;5037743;28;20029;-63
2023/02/13 00:29:12;;;;;;;299.92;181.75;;;153.80;2252.80;;;;;;5039433;28;20118;-64
2023/02/13 00:31:38;;;;;;;225.75;150.25;;;153.80;2252.80;;;;;;5038766;28;20088;-64
2023/02/13 00:34:04;;;;;;;140.90;89.65;;;154.00;2252.80;;;;;;5041583;28;20467;-64
2023/02/13 00:36:29;;;;;;;84.03;53.67;;;153.90;2252.80;;;;;;5043253;28;20096;-62
2023/02/13 00:38:55;;;;;;;59.03;38.85;;;153.70;2252.80;;;;;;5042320;28;20032;-63
2023/02/13 00:41:21;;;;;;;50.13;31.00;;;128.50;2252.80;;;;;;5041878;28;20047;-63
2023/02/13 00:43:48;;;;;;;43.88;30.52;;;128.30;2252.80;;;;;;5043384;28;20442;-63
2023/02/13 00:46:15;;;;;;;49.25;31.02;;;128.00;2252.80;;;;;;5041731;28;20025;-63
2023/02/13 00:48:41;;;;;;;50.35;32.10;;;128.00;2252.80;;;;;;5042231;28;20520;-63
2023/02/13 00:51:07;;;;;;;51.85;36.42;;;103.20;2227.20;;;;;;5043209;28;20072;-63
2023/02/13 00:53:34;;;;;;;49.90;33.42;;;103.20;2227.20;;;;;;5041773;28;20108;-63
2023/02/13 00:56:01;;;;;;;45.75;30.35;;;103.10;2227.20;;;;;;5042065;28;20017;-65
2023/02/13 00:58:27;;;;;;;44.53;29.30;;;103.20;2227.20;;;;;;5043440;28;20033;-65
2023/02/13 01:00:54;;;;;;;46.03;30.63;;;103.10;2227.20;;;;;;5041291;28;20033;-66
2023/02/13 01:03:20;;;;;;;52.92;34.38;;;103.20;2227.20;;;;;;5041907;28;20364;-64
2023/02/13 01:05:47;;;;;;;51.47;34.80;;;103.10;2227.20;;;;;;5042999;28;20048;-63
2023/02/13 01:08:14;;;;;;;63.65;39.47;;;103.00;2227.20;;;;;;5041341;28;20018;-64
2023/02/13 01:10:41;;;;;;;73.18;43.08;;;103.00;2227.20;;;;;;5041690;28;20025;-66
2023/02/13 01:13:08;;;;;;;65.47;39.10;;;102.80;2227.20;;;;;;5043039;28;20040;-65
2023/02/13 01:15:34;;;;;;;57.88;38.30;;;102.70;2227.20;;;;;;5041163;28;20025;-64
2023/02/13 01:18:00;;;;;;;62.10;38.80;;;102.70;2227.20;;;;;;5041282;28;20013;-65
2023/02/13 01:20:27;;;;;;;54.08;35.60;;;102.80;2227.20;;;;;;5042940;28;20063;-65
2023/02/13 01:22:54;;;;;;;54.58;35.42;;;102.70;2227.20;;;;;;5039784;28;20159;-64
2023/02/13 01:25:20;;;;;;;46.63;30.67;;;102.60;2227.20;;;;;;5041779;28;20037;-64
2023/02/13 01:27:46;;;;;;;54.63;33.65;;;102.60;2227.20;;;;;;5040801;28;20446;-62
2023/02/13 01:30:13;;;;;;;47.70;31.48;;;102.60;2227.20;;;;;;5042397;28;20025;-64
2023/02/13 01:32:40;;;;;;;47.55;30.27;;;102.70;2227.20;;;;;;5041395;28;20056;-64
2023/02/13 01:35:07;;;;;;;42.85;28.02;;;102.70;2227.20;;;;;;5040626;28;20034;-65
2023/02/13 01:37:33;;;;;;;45.25;29.02;;;102.80;2227.20;;;;;;5040648;28;20618;-62
2023/02/13 01:39:58;;;;;;;84.07;51.03;;;102.80;2227.20;;;;;;5041596;28;20107;-64
2023/02/13 01:42:27;;;;;;;79.75;48.28;;;103.10;2227.20;;;;;;5041952;28;20128;-65
2023/02/13 01:44:59;;;;;;;76.85;49.50;;;128.00;2252.80;;;;;;5038550;28;20041;-63
2023/02/13 01:47:46;;;;;;;83.80;48.53;;;128.20;2252.80;;;;;;5042143;28;20028;-63
2023/02/13 01:50:21;;;;;;;59.08;39.55;;;128.40;2252.80;;;;;;5042178;28;20029;-64
2023/02/13 01:52:52;;;;;;;79.85;53.78;;;128.40;2252.80;;;;;;5042339;28;20032;-65
2023/02/13 01:55:19;;;;;;;183.55;97.45;;;128.50;2252.80;;;;;;5039316;28;20029;-65
2023/02/13 01:57:52;;;;;;;121.05;71.28;;;128.60;2252.80;;;;;;5041992;28;20030;-64
2023/02/13 02:00:18;;;;;;;94.68;55.22;;;128.40;2252.80;;;;;;5039533;28;20017;-64
2023/02/13 02:02:54;;;;;;;119.30;74.88;;;128.40;2252.80;;;;;;5041811;28;20022;-63
2023/02/13 02:05:22;;;;;;;99.68;61.22;;;128.50;2252.80;;;;;;5039265;28;20029;-65
2023/02/13 02:07:48;;;;;;;91.13;55.45;;;128.50;2252.80;;;;;;5042104;28;20099;-64
2023/02/13 02:10:17;;;;;;;71.15;42.80;;;128.50;2252.80;;;;;;5040339;28;20104;-63
2023/02/13 02:12:46;;;;;;;69.03;41.50;;;128.40;2252.80;;;;;;5040301;28;20025;-64
2023/02/13 02:15:12;;;;;;;213.65;98.90;;;128.40;2252.80;;;;;;5041887;28;20046;-64
2023/02/13 02:17:38;;;;;;;426.65;228.10;;;128.30;2252.80;;;;;;5040938;28;20026;-65
2023/02/13 02:20:12;;;;;;;530.65;289.00;;;128.20;2252.80;;;;;;5040397;28;20029;-64
2023/02/13 02:22:47;;;;;;;210.48;111.65;;;128.20;2252.80;;;;;;5040657;28;20108;-65
2023/02/13 02:25:34;;;;;;;128.85;70.40;;;128.20;2252.80;;;;;;5039644;28;20040;-64
2023/02/13 02:28:27;;;;;;;73.43;43.90;;;128.10;2252.80;;;;;;5040391;28;20032;-64
2023/02/13 02:31:02;;;;;;;87.97;49.35;;;128.10;2252.80;;;;;;5038621;28;20020;-63
2023/02/13 02:34:04;;;;;;;81.70;46.25;;;128.20;2252.80;;;;;;5041588;28;20041;-65
2023/02/13 02:36:48;;;;;;;115.80;67.32;;;128.20;2252.80;;;;;;5024997;28;20021;-64
2023/02/13 02:39:35;;;;;;;379.08;201.55;;;128.20;2252.80;;;;;;5042457;28;20083;-64
2023/02/13 02:42:08;;;;;;;247.63;138.60;;;128.00;2252.80;;;;;;5051588;28;20085;-64
2023/02/13 02:44:53;;;;;;;133.45;76.05;;;128.10;2252.80;;;;;;5051669;28;20037;-64
2023/02/13 02:50:19;;;;;;;90.65;56.95;;;128.00;2252.80;;;;;;5051540;28;20047;-64
2023/02/13 02:52:47;;;;;;;83.03;51.67;;;128.00;2252.80;;;;;;5051583;28;20032;-64
2023/02/13 02:55:35;;;;;;;79.78;54.40;;;128.00;2252.80;;;;;;5051371;28;20075;-64
2023/02/13 03:06:32;;;;;;;142.27;87.35;;;103.20;2227.20;;;;;;5051458;28;20059;-65
2023/02/13 03:14:35;;;;;;;103.75;64.60;;;103.10;2227.20;;;;;;5051480;28;20119;-63
2023/02/13 03:23:01;;;;;;;76.10;47.53;;;102.90;2227.20;;;;;;5051073;28;20031;-64
2023/02/13 03:25:42;;;;;;;74.57;47.42;;;102.80;2227.20;;;;;;5051097;28;20037;-63
2023/02/13 03:31:44;;;;;;;60.80;37.60;;;102.80;2227.20;;;;;;5051182;28;20040;-64
2023/02/13 03:34:14;;;;;;;54.03;32.50;;;102.70;2227.20;;;;;;4999974;28;20391;-64
2023/02/13 03:39:48;;;;;;;63.63;39.78;;;102.60;2227.20;;;;;;5050910;28;20063;-64
2023/02/13 03:42:32;;;;;;;66.63;38.92;;;102.60;2227.20;;;;;;5050232;28;20071;-63
2023/02/13 03:50:04;;;;;;;65.95;42.22;;;102.60;2227.20;;;;;;5008938;28;20046;-64
2023/02/13 03:50:58;;;;;;;93.95;57.65;;;102.60;2227.20;;;;;;5008602;28;20033;-64
2023/02/13 03:53:27;;;;;;;198.23;95.95;;;102.60;2227.20;;;;;;5008823;28;20038;-64
2023/02/13 04:01:34;;;;;;;106.55;55.47;;;102.50;2227.20;;;;;;5008610;28;20037;-63
2023/02/13 04:04:10;;;;;;;125.93;69.80;;;102.50;2227.20;;;;;;5008448;28;20112;-64
2023/02/13 04:06:49;;;;;;;143.13;71.70;;;102.50;2227.20;;;;;;5008528;28;20499;-63
2023/02/13 04:09:15;;;;;;;92.88;50.88;;;102.50;2227.20;;;;;;5008453;28;20112;-62
2023/02/13 04:12:17;;;;;;;63.00;38.22;;;102.40;2227.20;;;;;;5008314;28;20116;-63
2023/02/13 04:14:57;;;;;;;71.82;41.45;;;102.50;2227.20;;;;;;5008456;28;20030;-64
2023/02/13 04:17:31;;;;;;;70.15;39.83;;;102.50;2227.20;;;;;;5008496;28;20026;-64
2023/02/13 04:19:57;;;;;;;68.55;42.40;;;102.60;2227.20;;;;;;5008703;28;20018;-63
2023/02/13 04:22:23;;;;;;;53.28;34.92;;;102.70;2227.20;;;;;;5008314;28;20136;-63
2023/02/13 04:24:49;;;;;;;62.22;37.67;;;102.60;2227.20;;;;;;5023975;28;20041;-63
2023/02/13 04:27:16;;;;;;;54.88;35.90;;;102.60;2227.20;;;;;;5050150;28;20071;-64
2023/02/13 04:29:42;;;;;;;78.72;48.70;;;102.70;2227.20;;;;;;5050273;28;20043;-64
2023/02/13 04:32:09;;;;;;;59.20;36.25;;;102.60;2227.20;;;;;;5050260;28;20468;-64
2023/02/13 04:34:35;;;;;;;51.92;30.63;;;102.70;2227.20;;;;;;5050148;28;20075;-64
2023/02/13 04:37:01;;;;;;;76.47;44.85;;;102.60;2227.20;;;;;;5049943;28;20100;-64
2023/02/13 04:39:27;;;;;;;54.42;31.38;;;102.50;2227.20;;;;;;5050118;28;20031;-64
2023/02/13 04:41:52;;;;;;;51.67;31.25;;;102.50;2227.20;;;;;;5049867;28;20048;-64
2023/02/13 04:44:18;;;;;;;65.55;39.28;;;102.50;2227.20;;;;;;5049887;28;20056;-64
2023/02/13 04:46:44;;;;;;;64.82;40.20;;;77.70;2227.20;;;;;;5050014;28;20033;-63
2023/02/13 04:49:10;;;;;;;59.45;36.13;;;77.70;2227.20;;;;;;5049907;28;20136;-63
2023/02/13 04:51:35;;;;;;;64.82;42.65;;;77.70;2227.20;;;;;;5049984;28;20457;-63
2023/02/13 04:54:01;;;;;;;68.93;42.22;;;77.70;2227.20;;;;;;5049649;28;20107;-64
2023/02/13 04:56:27;;;;;;;75.50;44.30;;;77.70;2227.20;;;;;;5050048;28;20533;-64
2023/02/13 04:58:54;;;;;;;83.15;49.00;;;77.70;2227.20;;;;;;5050069;28;20116;-64
2023/02/13 05:01:20;;;;;;;54.60;33.28;;;77.70;2227.20;;;;;;5049922;28;20112;-64
2023/02/13 05:03:46;;;;;;;129.75;72.13;;;77.70;2227.20;;;;;;5049931;28;20068;-63
2023/02/13 05:06:12;;;;;;;107.63;56.35;;;77.70;2227.20;;;;;;5049816;28;20060;-64
2023/02/13 05:08:38;;;;;;;52.85;31.60;;;77.70;2227.20;;;;;;5052854;28;20022;-66
2023/02/13 05:11:04;;;;;;;66.43;38.22;;;77.60;2227.20;;;;;;5053468;28;20059;-61
2023/02/13 05:13:30;;;;;;;56.50;32.10;;;77.40;2227.20;;;;;;5053375;28;20033;-60
2023/02/13 05:15:55;;;;;;;74.25;44.28;;;77.20;2227.20;;;;;;5054133;28;20029;-60
2023/02/13 05:18:21;;;;;;;97.72;52.72;;;77.30;2227.20;;;;;;5053420;28;20028;-60
2023/02/13 05:23:31;;;;;;;92.00;52.05;;;77.40;2227.20;;;;;;5053501;28;20028;-60
2023/02/13 05:25:57;;;;;;;69.68;38.42;;;77.40;2227.20;;;;;;5053234;28;20045;-59
2023/02/13 05:31:07;;;;;;;110.90;64.88;;;77.40;2227.20;;;;;;5053536;28;20031;-60
2023/02/13 05:33:32;;;;;;;107.50;62.58;;;77.40;2227.20;;;;;;5053170;28;20021;-59
2023/02/13 05:35:58;;;;;;;64.60;37.08;;;77.40;2227.20;;;;;;5053228;28;20144;-59
2023/02/13 05:38:24;;;;;;;60.67;34.05;;;77.20;2227.20;;;;;;5053219;28;20025;-66
2023/02/13 05:40:49;;;;;;;48.75;27.77;;;77.20;2227.20;;;;;;5032928;28;20541;-60
2023/02/13 05:43:15;;;;;;;46.05;26.33;;;77.10;2227.20;;;;;;5032732;28;20057;-60
2023/02/13 05:45:41;;;;;;;57.85;37.60;;;77.10;2227.20;;;;;;5032774;28;20033;-60
2023/02/13 05:48:06;;;;;;;78.95;50.38;;;76.90;2227.20;;;;;;5015229;28;20507;-60
2023/02/13 05:50:32;;;;;;;66.65;42.83;;;76.80;2227.20;;;;;;5032681;28;20027;-60
2023/02/13 05:52:58;;;;;;;59.92;35.47;;;76.80;2227.20;;;;;;5032714;28;20029;-59
2023/02/13 05:55:23;;;;;;;57.92;33.13;;;76.90;2227.20;;;;;;5032640;28;20080;-60
2023/02/13 05:57:49;;;;;;;61.40;38.40;;;76.90;2227.20;;;;;;5032882;28;20053;-60
2023/02/13 06:00:15;;;;;;;50.20;31.73;;;77.00;2227.20;;;;;;5032562;28;20463;-63
2023/02/13 06:02:41;;;;;;;60.28;37.15;;;77.00;2227.20;;;;;;5032300;28;20021;-59
2023/02/13 06:05:07;;;;;;;77.95;47.95;;;76.90;2227.20;;;;;;5032513;28;20112;-59
2023/02/13 06:07:33;;;;;;;66.25;38.75;;;77.10;2227.20;;;;;;5032444;28;20032;-59
2023/02/13 06:09:59;;;;;;;60.58;36.72;;;77.10;2227.20;;;;;;5032753;28;20036;-61
2023/02/13 06:12:25;;;;;;;58.85;36.53;;;77.20;2227.20;;;;;;5032255;28;20033;-60
2023/02/13 06:14:50;;;;;;;51.92;32.42;;;77.30;2227.20;;;;;;5032418;28;20055;-60
2023/02/13 06:17:16;;;;;;;38.88;24.00;;;77.40;2227.20;;;;;;5032610;28;20028;-61
2023/02/13 06:19:41;;;;;;;46.47;26.10;;;77.40;2227.20;;;;;;5032150;28;20057;-61
2023/02/13 06:22:07;;;;;;;42.40;26.40;;;77.40;2227.20;;;;;;5032141;28;20026;-61
2023/02/13 06:24:33;;;;;;;51.30;32.05;;;77.40;2227.20;;;;;;5032289;28;20034;-64
2023/02/13 06:26:58;;;;;;;48.20;28.23;;;77.40;2227.20;;;;;;5032260;28;20048;-62
2023/02/13 06:29:24;;;;;;;45.03;28.92;;;77.50;2227.20;;;;;;5032281;28;20032;-62
2023/02/13 06:31:50;;;;;;;45.80;28.77;;;77.60;2227.20;;;;;;5031838;28;20052;-62
2023/02/13 06:34:15;;;;;;;48.67;27.25;;;77.60;2227.20;;;;;;5032261;28;20138;-62
2023/02/13 06:36:41;;;;;;;42.05;28.05;;;77.70;2227.20;;;;;;5031940;28;20451;-62
2023/02/13 06:39:09;;;;;;;50.28;28.63;;;102.40;2227.20;;;;;;5031905;28;20029;-63
2023/02/13 06:41:35;;;;;;;37.78;27.90;;;102.50;2227.20;;;;;;5032079;28;20038;-62
2023/02/13 06:44:01;;;;;;;41.90;26.98;;;102.60;2227.20;;;;;;5031551;28;20041;-63
2023/02/13 06:46:27;;;;;;;49.03;29.13;;;102.60;2227.20;;;;;;5031778;28;20456;-63
2023/02/13 06:48:53;;;;;;;43.78;27.73;;;102.70;2227.20;;;;;;5031690;28;20044;-62
2023/02/13 06:51:19;;;;;;;56.83;35.00;;;102.70;2227.20;;;;;;5031592;28;20188;-62
2023/02/13 06:53:44;;;;;;;153.98;92.43;;;102.70;2227.20;;;;;;5031516;28;20032;-61
2023/02/13 06:56:10;;;;;;;285.58;172.93;;;102.80;2227.20;;;;;;5031623;28;20376;-61
2023/02/13 06:58:38;;;;;;;171.07;103.95;;;102.80;2227.20;;;;;;5034129;28;20025;-61
2023/02/13 07:01:04;;;;;;;109.20;65.00;;;102.90;2227.20;;;;;;5041351;28;20037;-62
2023/02/13 07:03:30;;;;;;;204.88;125.97;;;102.90;2227.20;;;;;;5039321;28;20060;-63
2023/02/13 07:05:56;;;;;;;127.82;81.05;;;103.00;2227.20;;;;;;5039372;28;20036;-62
2023/02/13 07:08:22;;;;;;;100.90;60.50;;;103.10;2227.20;;;;;;5040789;28;20064;-63
2023/02/13 07:10:48;;;;;;;75.85;50.80;;;103.20;2227.20;;;;;;5039388;28;20029;-63
2023/02/13 07:13:14;;;;;;;56.03;37.35;;;103.20;2227.20;;;;;;5039396;28;20104;-63
2023/02/13 07:15:40;;;;;;;50.45;31.60;;;103.20;2227.20;;;;;;5040948;28;20122;-63
2023/02/13 07:18:06;;;;;;;57.75;35.53;;;103.30;2227.20;;;;;;5038846;28;20210;-62
2023/02/13 07:20:32;;;;;;;59.00;40.97;;;128.00;2252.80;;;;;;5039611;28;20498;-64
2023/02/13 07:23:02;;;;;;;68.82;43.88;;;128.10;2252.80;;;;;;5040196;28;20033;-62
2023/02/13 07:25:29;;;;;;;68.68;44.95;;;128.10;2252.80;;;;;;5038145;28;20375;-62
2023/02/13 07:27:59;;;;;;;102.78;64.97;;;128.10;2252.80;;;;;;5040254;28;20026;-63
2023/02/13 07:30:25;;;;;;;205.75;128.32;;;128.00;2252.80;;;;;;5038671;28;20025;-62
2023/02/13 07:32:50;;;;;;;228.55;144.93;;;128.00;2252.80;;;;;;5039686;28;20092;-62
2023/02/13 07:35:16;;;;;;;189.32;122.50;;;128.20;2252.80;;;;;;5039889;28;20079;-61
2023/02/13 07:37:42;;;;;;;142.50;89.05;;;128.00;2252.80;;;;;;5037857;28;20420;-62
2023/02/13 07:40:08;;;;;;;91.35;57.90;;;128.00;2252.80;;;;;;5021884;28;20040;-62
2023/02/13 07:42:34;;;;;;;115.88;74.35;;;128.70;2252.80;;;;;;5025043;28;20376;-61
2023/02/13 07:45:00;;;;;;;101.57;67.97;;;128.00;2252.80;;;;;;5051640;28;20062;-63
2023/02/13 07:47:26;;;;;;;94.63;58.38;;;128.20;2252.80;;;;;;5061282;28;20021;-62
2023/02/13 07:49:53;;;;;;;75.47;49.67;;;128.70;2252.80;;;;;;5059491;28;20028;-63
2023/02/13 07:52:19;;;;;;;62.30;41.33;;;179.40;2252.80;;;;;;5059649;28;20126;-63
2023/02/13 07:54:48;;;;;;;81.18;58.40;;;205.50;2252.80;;;;;;5057947;28;20107;-65
2023/02/13 07:57:15;;;;;;;73.07;54.50;;;231.00;2252.80;;;;;;5059016;28;20359;-59
2023/02/13 07:59:40;;;;;;;70.85;51.42;;;256.50;2252.80;;;;;;5060211;28;20055;-58
2023/02/13 08:02:11;;;;;;;66.68;46.50;;;282.00;2278.40;;;;;;5058318;28;20455;-59
2023/02/13 08:04:37;;;;;;;59.28;45.58;;;307.80;2176.00;;;;;;5059560;28;20071;-59
2023/02/13 08:07:03;;;;;;;61.65;47.70;;;333.20;2099.20;;;;;;5063496;28;20052;-60
2023/02/13 08:12:13;;;;;;;104.78;74.57;;;384.30;1868.80;;;;;;5070216;28;20230;-60
2023/02/13 08:14:39;;;;;;;116.53;90.15;;;409.90;1792.00;;;;;;5070332;28;20100;-60
2023/02/13 08:17:05;;;;;;;68.13;55.08;;;435.30;1766.40;;;;;;5070343;28;20029;-61
2023/02/13 08:19:31;;;;;;;57.58;46.63;;;460.90;1689.60;;;;;;5070460;28;20028;-61
2023/02/13 08:21:57;;;;;;;60.63;53.92;;;486.40;1612.80;;;;;;5070818;28;20032;-60
2023/02/13 08:24:23;;;;;;;65.85;55.13;;;487.10;1561.60;;;;;;5070653;28;20063;-61
2023/02/13 08:26:49;;;;;;;54.35;48.15;;;512.30;1484.80;;;;;;5071120;28;20021;-62
2023/02/13 08:29:14;;;;;;;46.10;41.08;;;512.80;1484.80;;;;;;5071377;28;20027;-61
2023/02/13 08:31:40;;;;;;;56.97;50.17;;;537.80;1459.20;;;;;;5070920;28;20074;-62
2023/02/13 08:34:06;;;;;;;53.72;46.53;;;538.00;1459.20;;;;;;5070729;28;20031;-61
2023/02/13 08:36:31;;;;;;;87.72;78.55;;;538.20;1433.60;;;;;;5064701;28;20036;-60
2023/02/13 08:38:57;;;;;;;90.65;81.00;;;512.80;1433.60;;;;;;5050705;28;20483;-60
2023/02/13 08:41:23;;;;;;;90.25;80.40;;;537.70;1459.20;;;;;;5054865;28;20044;-61
2023/02/13 08:43:49;;;;;;;93.45;83.47;;;512.90;1433.60;;;;;;5049009;28;20060;-60
2023/02/13 08:46:16;;;;;;;98.25;87.60;;;538.10;1433.60;;;;;;5037855;28;20025;-61
2023/02/13 08:48:42;;;;;;;115.55;103.30;;;563.30;1433.60;;;;;;5038114;28;20028;-61
2023/02/13 08:51:10;;;;;;;115.43;103.53;;;564.00;1408.00;;;;;;5038605;28;20049;-59
2023/02/13 08:53:37;;;;;;;102.97;91.82;;;588.90;1356.80;;;;;;5039744;28;20026;-61
2023/02/13 08:56:03;;;;;;;117.60;105.43;;;589.50;1331.20;;;;;;5042288;28;20036;-61
2023/02/13 08:58:29;;;;;;;128.43;114.38;;;563.80;1356.80;;;;;;5042214;28;20044;-60
2023/02/13 09:00:55;;;;;;;134.02;119.82;;;564.00;1356.80;;;;;;5043337;28;20071;-60
2023/02/13 09:03:21;;;;;;;132.98;118.32;;;563.60;1356.80;;;;;;5043095;28;20034;-61
2023/02/13 09:05:46;;;;;;;142.70;127.43;;;538.50;1382.40;;;;;;5039518;28;20040;-61
2023/02/13 09:08:12;;;;;;;172.32;153.93;;;537.90;1408.00;;;;;;5040339;28;20033;-60
2023/02/13 09:10:40;;;;;;;142.25;127.53;;;512.60;1408.00;;;;;;5042550;28;20025;-60
2023/02/13 09:13:05;;;;;;;126.40;113.03;;;538.50;1382.40;;;;;;5042739;28;20034;-60
2023/02/13 09:15:31;;;;;;;142.90;128.07;;;537.70;1433.60;;;;;;5041053;28;20025;-61
2023/02/13 09:17:57;;;;;;;123.07;109.78;;;512.90;1382.40;;;;;;5042881;28;20013;-60
2023/02/13 09:20:23;;;;;;;119.20;106.75;;;512.50;1408.00;;;;;;5042405;28;20029;-61
2023/02/13 09:22:49;;;;;;;121.88;108.88;;;487.30;1459.20;;;;;;5042606;28;20112;-61
2023/02/13 09:25:15;;;;;;;102.18;91.65;;;512.30;1433.60;;;;;;5045152;28;20100;-60
2023/02/13 09:27:40;;;;;;;116.55;103.75;;;512.60;1433.60;;;;;;5044676;28;20024;-61
2023/02/13 09:30:10;;;;;;;109.88;98.35;;;487.20;1459.20;;;;;;5044092;28;20463;-60
2023/02/13 09:32:36;;;;;;;103.60;92.95;;;487.00;1484.80;;;;;;5043192;28;20040;-60
2023/02/13 09:35:05;;;;;;;84.13;75.22;;;512.60;1408.00;;;;;;5043725;28;20029;-61
2023/02/13 09:37:31;;;;;;;81.03;72.35;;;512.70;1433.60;;;;;;5043949;28;20032;-61
2023/02/13 09:39:57;;;;;;;84.93;75.88;;;537.60;1408.00;;;;;;5043574;28;20029;-60
2023/02/13 09:42:27;;;;;;;64.97;58.10;;;537.70;1356.80;;;;;;5041227;28;20083;-60
2023/02/13 09:44:58;;;;;;;104.40;93.40;;;461.70;1459.20;;;;;;5040517;28;20041;-60
2023/02/13 09:47:27;;;;;;;74.13;65.55;;;461.60;1510.40;;;;;;5041359;28;20049;-60
2023/02/13 09:49:57;;;;;;;50.10;41.72;;;435.90;1536.00;;;;;;5042200;28;20065;-61
2023/02/13 09:52:24;;;;;;;33.00;26.17;;;409.70;1587.20;;;;;;5040982;28;20032;-59
2023/02/13 09:54:49;;;;;;;60.50;40.42;;;409.60;1587.20;;;;;;5040508;28;20032;-62
2023/02/13 09:57:47;;;;;;;53.47;44.42;;;384.90;1587.20;;;;;;5042289;28;20117;-61
2023/02/13 10:00:20;;;;;;;58.90;49.13;;;409.80;1612.80;;;;;;4949969;29;20074;-60
2023/02/13 10:02:57;;;;;;;49.60;39.83;;;384.20;1638.40;;;;;;4950842;29;20110;-60
2023/02/13 10:05:29;;;;;;;47.33;37.65;;;384.10;1689.60;;;;;;4947998;28;20046;-59
2023/02/13 10:08:15;;;;;;;53.35;44.78;;;384.10;1715.20;;;;;;4950764;29;20351;-61
2023/02/13 10:11:00;;;;;;;50.67;39.78;;;384.40;1664.00;;;;;;4948152;29;20035;-60
2023/02/13 10:13:26;;;;;;;48.80;35.45;;;384.60;1664.00;;;;;;4949189;29;20047;-59
2023/02/13 10:16:46;;;;;;;54.58;42.95;;;384.40;1689.60;;;;;;4950551;29;20535;-60
2023/02/13 10:19:39;;;;;;;39.35;32.25;;;384.00;1689.60;;;;;;4912506;29;20028;-62
2023/02/13 10:22:17;;;;;;;38.73;31.47;;;359.00;1715.20;;;;;;4910541;29;20031;-59
2023/02/13 10:25:01;;;;;;;35.78;28.23;;;333.70;1715.20;;;;;;4910089;29;20573;-60
2023/02/13 10:27:36;;;;;;;41.58;32.90;;;333.70;1740.80;;;;;;4908256;29;20036;-60
2023/02/13 10:30:32;;;;;;;52.05;40.65;;;333.60;1766.40;;;;;;4909898;29;20044;-60
2023/02/13 10:33:20;;;;;;;40.92;29.50;;;333.60;1766.40;;;;;;4906685;29;20040;-59
2023/02/13 10:35:51;;;;;;;42.08;31.25;;;332.80;1792.00;;;;;;4908906;29;20036;-60
2023/02/13 10:38:21;;;;;;;39.42;29.90;;;307.80;1817.60;;;;;;4901567;29;20033;-60
2023/02/13 10:41:13;;;;;;;39.78;32.83;;;332.90;1817.60;;;;;;4902851;29;20029;-60
2023/02/13 10:44:06;;;;;;;45.97;33.13;;;333.70;1766.40;;;;;;4928448;29;20142;-60
2023/02/13 10:46:47;;;;;;;41.97;35.70;;;358.50;1740.80;;;;;;4939947;29;20174;-60
2023/02/13 10:49:13;;;;;;;42.72;30.48;;;333.60;1766.40;;;;;;4978225;28;20023;-60
2023/02/13 10:51:44;;;;;;;39.28;31.20;;;333.50;1766.40;;;;;;4979960;28;20381;-59
2023/02/13 10:54:22;;;;;;;41.28;32.30;;;333.60;1740.80;;;;;;5060362;28;20013;-61
2023/02/13 10:57:06;;;;;;;38.42;27.80;;;333.10;1792.00;;;;;;5050405;28;20017;-58
2023/02/13 11:00:03;;;;;;;41.22;28.33;;;333.30;1792.00;;;;;;5051220;28;20021;-60
2023/02/13 11:02:35;;;;;;;50.38;34.60;;;333.20;1792.00;;;;;;5051544;28;20028;-59
2023/02/13 11:05:14;;;;;;;45.07;31.43;;;332.80;1817.60;;;;;;5051263;28;20115;-60
2023/02/13 11:07:41;;;;;;;39.25;27.67;;;333.00;1817.60;;;;;;5051116;28;20262;-60
2023/02/13 11:10:19;;;;;;;41.47;33.08;;;332.80;1817.60;;;;;;5051234;28;20033;-59
2023/02/13 11:12:45;;;;;;;45.53;28.63;;;308.00;1817.60;;;;;;5050934;28;20029;-60
2023/02/13 11:15:29;;;;;;;42.85;30.73;;;332.80;1843.20;;;;;;5050941;28;20025;-59
2023/02/13 11:17:59;;;;;;;;;;;308.10;1817.60;;;;;;5051391;28;20418;-60
2023/02/13 11:20:37;;;;;;;44.97;31.38;;;333.30;1792.00;;;;;;5050865;28;20416;-59
2023/02/13 11:23:28;;;;;;;53.85;43.03;;;333.60;1766.40;;;;;;5050904;28;20108;-59
2023/02/13 11:26:08;;;;;;;48.97;37.28;;;333.50;1792.00;;;;;;5050668;28;20166;-59
2023/02/13 11:28:45;;;;;;;51.60;39.10;;;333.60;1817.60;;;;;;5050931;28;20178;-59
2023/02/13 11:31:26;;;;;;;39.35;31.30;;;333.50;1792.00;;;;;;5050995;28;20021;-60
2023/02/13 11:33:52;;;;;;;45.28;32.10;;;308.10;1817.60;;;;;;5050776;28;20170;-60
2023/02/13 11:36:26;;;;;;;50.35;38.20;;;332.80;1843.20;;;;;;5051115;28;20112;-60
2023/02/13 11:39:05;;;;;;;53.15;39.40;;;308.10;1843.20;;;;;;5050650;28;20381;-61
2023/02/13 11:41:40;;;;;;;61.58;45.97;;;332.90;1868.80;;;;;;5050475;28;20041;-60
2023/02/13 11:44:25;;;;;;;47.95;37.63;;;308.00;1868.80;;;;;;5050495;28;20479;-60
2023/02/13 11:46:55;;;;;;;62.58;46.40;;;307.60;1868.80;;;;;;5050390;28;20051;-59
2023/02/13 11:49:24;;;;;;;47.60;36.03;;;307.80;1868.80;;;;;;5049038;28;20071;-60
2023/02/13 11:52:01;;;;;;;55.63;40.55;;;307.80;1868.80;;;;;;5047586;28;20475;-61
2023/02/13 11:54:42;;;;;;;53.20;35.95;;;307.80;1868.80;;;;;;5048582;28;20033;-60
2023/02/13 11:57:27;;;;;;;49.45;37.58;;;332.90;1868.80;;;;;;5048524;28;20541;-60
2023/02/13 11:59:52;;;;;;;54.28;41.05;;;332.80;1868.80;;;;;;5048196;28;20021;-60
2023/02/13 12:02:29;;;;;;;57.97;42.58;;;308.10;1843.20;;;;;;5048403;28;20133;-60
2023/02/13 12:05:18;;;;;;;48.15;34.90;;;332.80;1868.80;;;;;;5047930;28;20033;-60
2023/02/13 12:07:45;;;;;;;47.13;34.42;;;307.90;1868.80;;;;;;5048114;28;20104;-60
2023/02/13 12:10:28;;;;;;;50.55;37.38;;;307.60;1894.40;;;;;;5048032;28;20036;-60
2023/02/13 12:12:59;;;;;;;44.13;34.20;;;307.90;1894.40;;;;;;5047949;28;20534;-60
2023/02/13 12:15:30;;;;;;;51.15;38.03;;;332.90;1920.00;;;;;;5048318;28;20513;-60
2023/02/13 12:18:02;;;;;;;42.08;32.20;;;332.80;1894.40;;;;;;5047633;28;20021;-60
2023/02/13 12:20:36;;;;;;;35.67;25.58;;;307.80;1920.00;;;;;;5048293;28;20151;-61
2023/02/13 12:23:20;;;;;;;25.15;19.88;;;307.80;1920.00;;;;;;5048087;28;20018;-60
2023/02/13 12:26:06;;;;;;;24.42;18.50;;;308.10;1894.40;;;;;;5048014;28;20041;-59
2023/02/13 12:28:34;;;;;;;24.95;17.55;;;308.00;1868.80;;;;;;4987213;28;20556;-61
2023/02/13 12:31:18;;;;;;;23.90;19.25;;;308.00;1868.80;;;;;;4989694;28;20472;-60
2023/02/13 12:33:53;;;;;;;34.30;24.27;;;307.90;1868.80;;;;;;4990198;28;20520;-60
2023/02/13 12:36:44;;;;;;;24.92;19.42;;;308.00;1894.40;;;;;;4990623;28;20026;-60
2023/02/13 12:39:21;;;;;;;24.33;17.92;;;307.90;1868.80;;;;;;4989924;28;20030;-61
2023/02/13 12:42:29;;;;;;;19.73;15.20;;;332.80;1868.80;;;;;;4990171;28;20038;-60
2023/02/13 12:45:02;;;;;;;16.60;12.32;;;333.20;1817.60;;;;;;4951173;29;20122;-61
2023/02/13 12:47:38;;;;;;;16.52;13.38;;;333.00;1792.00;;;;;;4951399;29;20043;-60
2023/02/13 12:50:29;;;;;;;18.60;14.07;;;333.00;1817.60;;;;;;4951304;28;20046;-60
2023/02/13 12:53:14;;;;;;;19.55;13.13;;;333.20;1817.60;;;;;;4951085;28;20067;-60
2023/02/13 12:56:10;;;;;;;19.08;14.88;;;333.00;1817.60;;;;;;4950870;29;20115;-61
2023/02/13 12:58:50;;;;;;;20.65;15.48;;;307.90;1817.60;;;;;;4951271;28;20577;-60
2023/02/13 13:01:38;;;;;;;28.75;15.63;;;307.80;1843.20;;;;;;4951195;29;20158;-60